Time;durP1;ratioP1;P1;durP2;ratioP2;P2;SDS_P1;SDS_P2;PMS_P1;PMS_P2;Temp;Humidity;BMP_temperature;BMP_pressure;BME280_temperature;BME280_humidity;BME280_pressure;Samples;Min_cycle;Max_cycle;Signal;HPM_P1;HPM_P2
2022/03/13 00:01:37;;;;;;;20.65;12.60;;;2.70;99.90;;;;;;5009682;28;20393;-61
2022/03/13 00:04:42;;;;;;;22.98;12.15;;;2.60;99.90;;;;;;5010075;28;20056;-61
2022/03/13 00:07:47;;;;;;;20.63;11.00;;;2.60;99.90;;;;;;5010708;28;20065;-61
2022/03/13 00:11:04;;;;;;;29.45;13.75;;;2.60;99.90;;;;;;5009329;28;20045;-61
2022/03/13 00:14:10;;;;;;;27.25;13.27;;;2.60;99.90;;;;;;5010285;28;20053;-61
2022/03/13 00:17:15;;;;;;;30.83;15.45;;;2.60;99.90;;;;;;5014371;28;20053;-62
2022/03/13 00:20:20;;;;;;;31.55;15.73;;;2.50;99.90;;;;;;5014383;28;20053;-61
2022/03/13 00:23:24;;;;;;;29.60;16.25;;;2.50;99.90;;;;;;5014483;28;20050;-61
2022/03/13 00:26:35;;;;;;;45.38;24.88;;;2.50;99.90;;;;;;5014358;28;20225;-61
2022/03/13 00:29:41;;;;;;;36.40;21.35;;;2.50;99.90;;;;;;5014052;28;20048;-61
2022/03/13 00:32:46;;;;;;;22.70;13.35;;;2.50;99.90;;;;;;5013681;28;20049;-61
2022/03/13 00:35:49;;;;;;;23.23;12.65;;;2.50;99.90;;;;;;5014217;28;20508;-61
2022/03/13 00:38:53;;;;;;;26.35;12.50;;;2.50;99.90;;;;;;5013770;28;20049;-61
2022/03/13 00:41:57;;;;;;;23.48;13.52;;;2.40;99.90;;;;;;5013066;28;20061;-61
2022/03/13 00:45:02;;;;;;;27.17;14.02;;;2.40;99.90;;;;;;5014093;28;20045;-61
2022/03/13 00:48:06;;;;;;;29.08;14.85;;;2.40;99.90;;;;;;5013748;28;20049;-61
2022/03/13 00:51:10;;;;;;;28.02;14.23;;;2.40;99.90;;;;;;5013083;28;20496;-61
2022/03/13 00:54:14;;;;;;;28.63;15.15;;;2.50;99.90;;;;;;5013599;28;20491;-61
2022/03/13 00:57:19;;;;;;;22.55;12.20;;;2.40;99.90;;;;;;5013219;28;20041;-61
2022/03/13 01:00:23;;;;;;;25.20;11.95;;;2.40;99.90;;;;;;5013051;28;20515;-62
2022/03/13 01:03:47;;;;;;;27.50;14.93;;;2.40;99.90;;;;;;5013243;28;20497;-61
2022/03/13 01:06:51;;;;;;;36.58;19.42;;;2.40;99.90;;;;;;5023670;28;20049;-61
2022/03/13 01:09:55;;;;;;;28.98;15.30;;;2.50;99.90;;;;;;5024002;28;20045;-61
2022/03/13 01:12:59;;;;;;;21.48;13.02;;;2.50;99.90;;;;;;5012811;28;20049;-62
2022/03/13 01:16:20;;;;;;;22.58;12.02;;;2.50;99.90;;;;;;5013363;28;20073;-61
2022/03/13 01:19:24;;;;;;;24.52;12.25;;;2.40;99.90;;;;;;5013439;28;20508;-61
2022/03/13 01:22:28;;;;;;;24.23;12.98;;;2.40;99.90;;;;;;5012679;28;20049;-61
2022/03/13 01:25:32;;;;;;;26.48;15.73;;;2.30;99.90;;;;;;5013441;28;20053;-61
2022/03/13 01:28:36;;;;;;;24.05;13.23;;;2.30;99.90;;;;;;5011785;28;20053;-61
2022/03/13 01:31:44;;;;;;;26.52;16.02;;;2.30;99.90;;;;;;5012220;28;20045;-61
2022/03/13 01:34:54;;;;;;;35.08;19.00;;;2.30;99.90;;;;;;5012831;28;20052;-61
2022/03/13 01:37:58;;;;;;;25.85;13.70;;;2.30;99.90;;;;;;5012967;28;20040;-61
2022/03/13 01:41:02;;;;;;;26.92;15.65;;;2.30;99.90;;;;;;5012216;28;20053;-61
2022/03/13 01:44:06;;;;;;;28.00;15.35;;;2.30;99.90;;;;;;5012979;28;20053;-61
2022/03/13 01:47:10;;;;;;;23.27;13.98;;;2.30;99.90;;;;;;5012746;28;20065;-61
2022/03/13 01:50:15;;;;;;;24.92;14.65;;;2.30;99.90;;;;;;5012729;28;20052;-61
2022/03/13 01:53:21;;;;;;;21.23;12.52;;;2.20;99.90;;;;;;5012212;28;20049;-61
2022/03/13 01:56:25;;;;;;;30.23;13.95;;;2.20;99.90;;;;;;5012668;28;20045;-61
2022/03/13 01:59:30;;;;;;;26.48;14.60;;;2.20;99.90;;;;;;5012771;28;20048;-60
2022/03/13 02:02:34;;;;;;;34.00;18.02;;;2.20;99.90;;;;;;5011927;28;20049;-60
2022/03/13 02:05:38;;;;;;;24.17;12.82;;;2.20;99.90;;;;;;5012293;28;20072;-61
2022/03/13 02:08:47;;;;;;;25.08;14.10;;;2.20;99.90;;;;;;5012216;28;20049;-61
2022/03/13 02:11:51;;;;;;;30.80;15.68;;;2.20;99.90;;;;;;5011634;28;20381;-61
2022/03/13 02:14:56;;;;;;;28.40;15.43;;;2.20;99.90;;;;;;5011694;28;20045;-61
2022/03/13 02:18:02;;;;;;;26.15;13.30;;;2.20;99.90;;;;;;5012169;28;20062;-61
2022/03/13 02:21:07;;;;;;;23.35;12.18;;;2.20;99.90;;;;;;5011490;28;20037;-61
2022/03/13 02:24:16;;;;;;;24.10;12.70;;;2.10;99.90;;;;;;5011833;28;20044;-61
2022/03/13 02:27:23;;;;;;;20.75;11.73;;;2.10;99.90;;;;;;5011979;28;20053;-61
2022/03/13 02:30:34;;;;;;;21.40;11.90;;;1.90;99.90;;;;;;5011147;28;20393;-61
2022/03/13 02:33:39;;;;;;;24.38;12.68;;;1.90;99.90;;;;;;5011676;28;20053;-61
2022/03/13 02:36:43;;;;;;;27.65;15.63;;;1.80;99.90;;;;;;5011607;28;20049;-61
2022/03/13 02:39:47;;;;;;;25.83;15.70;;;1.70;99.90;;;;;;5011293;28;20377;-61
2022/03/13 02:42:52;;;;;;;25.83;13.77;;;1.70;99.90;;;;;;5011433;28;20049;-61
2022/03/13 02:45:56;;;;;;;30.48;13.73;;;1.70;99.90;;;;;;5011507;28;20044;-61
2022/03/13 02:49:00;;;;;;;26.75;13.35;;;1.70;99.90;;;;;;5011471;28;20053;-62
2022/03/13 02:52:06;;;;;;;25.83;13.45;;;1.70;99.90;;;;;;5010393;28;20049;-61
2022/03/13 02:55:10;;;;;;;28.90;16.58;;;1.70;99.90;;;;;;5011103;28;20065;-61
2022/03/13 02:58:16;;;;;;;28.38;14.43;;;1.80;99.90;;;;;;5011602;28;20469;-61
2022/03/13 03:01:21;;;;;;;32.72;16.20;;;1.70;99.90;;;;;;5010632;28;20053;-61
2022/03/13 03:04:25;;;;;;;29.08;13.07;;;1.70;99.90;;;;;;5011050;28;20053;-61
2022/03/13 03:07:30;;;;;;;26.90;14.52;;;1.80;99.90;;;;;;5011075;28;20393;-61
2022/03/13 03:10:35;;;;;;;40.95;19.65;;;1.80;99.90;;;;;;5010361;28;20393;-61
2022/03/13 03:13:41;;;;;;;31.65;15.70;;;1.70;99.90;;;;;;5010755;28;20064;-61
2022/03/13 03:16:45;;;;;;;25.95;14.32;;;1.70;99.90;;;;;;5010831;28;20405;-61
2022/03/13 03:19:49;;;;;;;25.55;14.02;;;1.70;99.90;;;;;;5011117;28;20049;-61
2022/03/13 03:22:54;;;;;;;26.02;13.10;;;1.60;99.90;;;;;;5010407;28;20048;-61
2022/03/13 03:25:59;;;;;;;21.48;11.95;;;1.60;99.90;;;;;;5010863;28;20061;-62
2022/03/13 03:29:04;;;;;;;24.35;12.27;;;1.60;99.90;;;;;;5010853;28;20053;-61
2022/03/13 03:32:08;;;;;;;20.50;11.98;;;1.60;99.90;;;;;;5010207;28;20036;-61
2022/03/13 03:35:12;;;;;;;20.48;12.00;;;1.60;99.90;;;;;;5010553;28;20397;-60
2022/03/13 03:38:16;;;;;;;21.20;11.85;;;1.60;99.90;;;;;;5010736;28;20052;-61
2022/03/13 03:41:20;;;;;;;21.63;11.55;;;1.60;99.90;;;;;;5010125;28;20040;-61
2022/03/13 03:44:25;;;;;;;22.42;12.75;;;1.60;99.90;;;;;;5010461;28;20064;-61
2022/03/13 03:47:29;;;;;;;18.75;10.85;;;1.60;99.90;;;;;;5010517;28;20060;-61
2022/03/13 03:50:34;;;;;;;18.13;10.88;;;1.60;99.90;;;;;;5009718;28;20045;-61
2022/03/13 03:53:38;;;;;;;24.60;12.45;;;1.60;99.90;;;;;;5010093;28;20041;-61
2022/03/13 03:56:43;;;;;;;30.15;19.83;;;1.60;99.90;;;;;;5010605;28;20048;-60
2022/03/13 03:59:47;;;;;;;24.08;12.43;;;1.50;99.90;;;;;;5010566;28;20041;-60
2022/03/13 04:02:52;;;;;;;21.90;11.57;;;1.50;99.90;;;;;;5009512;28;20551;-61
2022/03/13 04:05:55;;;;;;;21.45;11.85;;;1.50;99.90;;;;;;5010195;28;20041;-61
2022/03/13 04:09:00;;;;;;;22.30;11.93;;;1.50;99.90;;;;;;5010085;28;20500;-60
2022/03/13 04:12:08;;;;;;;22.48;13.13;;;1.50;99.90;;;;;;5009912;28;20053;-60
2022/03/13 04:15:12;;;;;;;23.95;12.20;;;1.50;99.90;;;;;;5009725;28;20061;-60
2022/03/13 04:18:19;;;;;;;36.72;14.48;;;1.40;99.90;;;;;;5009860;28;20037;-61
2022/03/13 04:21:23;;;;;;;23.45;12.68;;;1.40;99.90;;;;;;5009638;28;20084;-61
2022/03/13 04:24:30;;;;;;;21.73;12.30;;;1.40;99.90;;;;;;5009710;28;20053;-60
2022/03/13 04:27:35;;;;;;;27.67;13.65;;;1.20;99.90;;;;;;5009959;28;20041;-61
2022/03/13 04:30:39;;;;;;;22.58;12.85;;;1.20;99.90;;;;;;5009750;28;20131;-61
2022/03/13 04:33:44;;;;;;;27.23;13.55;;;1.10;99.90;;;;;;5009635;28;20064;-61
2022/03/13 04:36:49;;;;;;;25.58;13.82;;;1.00;99.90;;;;;;5010127;28;20121;-61
2022/03/13 04:39:54;;;;;;;26.60;14.68;;;0.90;99.90;;;;;;5009895;28;20496;-61
2022/03/13 04:42:59;;;;;;;28.20;15.52;;;0.80;99.90;;;;;;5009614;28;20041;-60
2022/03/13 04:46:03;;;;;;;32.35;15.85;;;0.60;99.90;;;;;;5010130;28;20495;-61
2022/03/13 04:49:07;;;;;;;25.88;14.57;;;0.50;99.90;;;;;;5010129;28;20045;-61
2022/03/13 04:52:12;;;;;;;28.38;16.10;;;0.40;99.90;;;;;;5009509;28;20113;-61
2022/03/13 04:55:18;;;;;;;32.25;16.42;;;0.30;99.90;;;;;;5009701;28;20397;-60
2022/03/13 04:58:22;;;;;;;29.35;15.57;;;0.30;99.90;;;;;;5009998;28;20049;-61
2022/03/13 05:01:27;;;;;;;35.70;16.42;;;0.30;99.90;;;;;;5009515;28;20045;-61
2022/03/13 05:04:32;;;;;;;26.60;14.98;;;0.30;99.90;;;;;;5023781;28;20658;-61
2022/03/13 05:07:38;;;;;;;27.40;15.38;;;0.30;99.90;;;;;;5013529;28;20565;-61
2022/03/13 05:10:44;;;;;;;27.77;15.93;;;0.20;99.90;;;;;;5012643;28;20049;-61
2022/03/13 05:13:48;;;;;;;29.77;15.20;;;0.20;99.90;;;;;;5012924;28;20053;-61
2022/03/13 05:16:52;;;;;;;26.67;14.70;;;0.10;99.90;;;;;;5013140;28;20041;-61
2022/03/13 05:19:56;;;;;;;24.60;14.07;;;0.10;99.90;;;;;;5013202;28;20049;-61
2022/03/13 05:23:05;;;;;;;28.05;14.40;;;0.10;99.90;;;;;;5013212;28;20048;-61
2022/03/13 05:26:09;;;;;;;22.55;13.10;;;0.10;99.90;;;;;;5012812;28;20048;-61
2022/03/13 05:29:12;;;;;;;22.52;12.45;;;0.10;99.90;;;;;;5012837;28;20061;-60
2022/03/13 05:32:17;;;;;;;21.95;12.80;;;0.10;99.90;;;;;;5012692;28;20053;-61
2022/03/13 05:35:22;;;;;;;27.75;12.70;;;0.20;99.90;;;;;;5012581;28;20053;-60
2022/03/13 05:38:26;;;;;;;26.90;12.55;;;0.20;99.90;;;;;;5013074;28;20504;-60
2022/03/13 05:41:30;;;;;;;25.50;12.57;;;0.20;99.90;;;;;;5011709;28;20049;-61
2022/03/13 05:44:36;;;;;;;21.50;12.63;;;0.30;99.90;;;;;;5012754;28;20053;-61
2022/03/13 05:47:49;;;;;;;30.67;15.20;;;0.40;99.90;;;;;;5013047;28;20061;-60
2022/03/13 05:50:53;;;;;;;61.13;30.45;;;0.50;99.90;;;;;;5011940;28;20052;-60
2022/03/13 05:53:56;;;;;;;40.40;20.17;;;0.50;99.90;;;;;;5012862;28;20048;-61
2022/03/13 05:57:03;;;;;;;27.50;15.27;;;0.60;99.90;;;;;;5012671;28;20049;-61
2022/03/13 06:00:11;;;;;;;30.20;15.13;;;0.50;99.90;;;;;;5012651;28;20049;-60
2022/03/13 06:03:24;;;;;;;30.73;14.25;;;0.60;99.90;;;;;;5012626;28;20044;-60
2022/03/13 06:06:29;;;;;;;31.67;15.85;;;0.70;99.90;;;;;;5011355;28;20496;-61
2022/03/13 06:09:33;;;;;;;28.30;14.38;;;0.70;99.90;;;;;;5012129;28;20056;-61
2022/03/13 06:12:37;;;;;;;26.15;12.95;;;0.90;99.90;;;;;;5011470;28;20500;-61
2022/03/13 06:15:41;;;;;;;32.65;16.50;;;1.00;99.90;;;;;;5011678;28;20049;-61
2022/03/13 06:18:46;;;;;;;29.50;16.23;;;1.10;99.90;;;;;;5012270;28;20044;-61
2022/03/13 06:21:50;;;;;;;28.45;15.25;;;2.90;99.90;;;;;;5011545;28;20049;-61
2022/03/13 06:24:54;;;;;;;29.05;16.45;;;5.50;99.90;;;;;;5011767;28;20056;-62
2022/03/13 06:27:59;;;;;;;22.30;13.63;;;7.70;99.90;;;;;;5011503;28;20503;-61
2022/03/13 06:31:03;;;;;;;24.25;15.10;;;10.10;99.90;;;;;;5011275;28;20396;-62
2022/03/13 06:34:08;;;;;;;25.80;15.15;;;11.80;97.70;;;;;;5011982;28;20061;-61
2022/03/13 06:37:12;;;;;;;24.48;13.80;;;13.10;94.80;;;;;;5011718;28;20061;-61
2022/03/13 06:40:19;;;;;;;27.80;15.05;;;14.30;92.00;;;;;;5012043;28;20531;-62
2022/03/13 06:43:23;;;;;;;20.17;13.63;;;15.00;90.00;;;;;;5011728;28;20504;-62
2022/03/13 06:46:28;;;;;;;21.63;13.18;;;15.60;86.20;;;;;;5011518;28;20054;-62
2022/03/13 06:49:32;;;;;;;19.90;12.93;;;15.60;84.20;;;;;;5011888;28;20390;-59
2022/03/13 06:52:36;;;;;;;20.00;13.57;;;15.60;80.50;;;;;;5011355;28;20052;-60
2022/03/13 06:55:41;;;;;;;21.05;13.50;;;14.00;82.70;;;;;;5010597;28;20512;-59
2022/03/13 06:58:45;;;;;;;20.40;13.98;;;13.30;84.80;;;;;;5011327;28;20634;-59
2022/03/13 07:01:49;;;;;;;20.38;14.60;;;12.40;84.90;;;;;;5010919;28;20116;-59
2022/03/13 07:04:53;;;;;;;18.95;13.65;;;11.10;87.80;;;;;;5011611;28;20125;-59
2022/03/13 07:07:58;;;;;;;19.27;13.63;;;11.60;88.40;;;;;;5011368;28;20130;-59
2022/03/13 07:11:02;;;;;;;21.33;13.95;;;13.00;87.10;;;;;;5010906;28;20409;-59
2022/03/13 07:14:07;;;;;;;23.52;14.82;;;12.80;86.10;;;;;;5011251;28;20045;-59
2022/03/13 07:17:11;;;;;;;21.55;13.73;;;14.00;84.10;;;;;;5011087;28;20045;-59
2022/03/13 07:20:16;;;;;;;17.88;12.77;;;14.00;83.40;;;;;;5011245;28;20068;-60
2022/03/13 07:23:19;;;;;;;17.85;11.65;;;15.70;81.40;;;;;;5010958;28;20405;-59
2022/03/13 07:26:24;;;;;;;17.33;11.68;;;16.60;76.80;;;;;;5010446;28;20053;-60
2022/03/13 07:29:29;;;;;;;19.23;12.43;;;15.20;76.90;;;;;;5010453;28;20049;-60
2022/03/13 07:32:33;;;;;;;21.45;13.10;;;13.80;78.20;;;;;;5010989;28;20045;-59
2022/03/13 07:35:37;;;;;;;18.65;13.27;;;12.50;80.50;;;;;;5010754;28;20057;-60
2022/03/13 07:38:41;;;;;;;22.33;15.98;;;13.10;81.90;;;;;;5010407;28;20100;-59
2022/03/13 07:41:45;;;;;;;21.05;13.95;;;11.20;83.80;;;;;;5010097;28;20410;-59
2022/03/13 07:44:51;;;;;;;16.58;13.00;;;11.90;86.00;;;;;;5009420;28;20499;-60
2022/03/13 07:47:57;;;;;;;18.00;13.05;;;12.80;83.30;;;;;;5010759;28;20057;-60
2022/03/13 07:51:05;;;;;;;17.45;12.95;;;15.10;79.90;;;;;;5010078;28;20045;-60
2022/03/13 07:54:10;;;;;;;16.98;12.20;;;16.30;76.70;;;;;;5010172;28;20048;-60
2022/03/13 07:57:15;;;;;;;20.02;12.52;;;16.70;75.40;;;;;;5010346;28;20041;-60
2022/03/13 08:00:21;;;;;;;18.05;12.45;;;16.50;74.70;;;;;;5010320;28;20053;-60
2022/03/13 08:03:29;;;;;;;17.13;12.40;;;18.00;72.60;;;;;;5010436;28;20049;-60
2022/03/13 08:06:35;;;;;;;19.45;13.30;;;15.40;73.70;;;;;;5010181;28;20050;-61
2022/03/13 08:09:39;;;;;;;18.88;13.23;;;13.90;75.50;;;;;;5010185;28;20045;-60
2022/03/13 08:12:43;;;;;;;16.33;12.68;;;13.00;77.70;;;;;;5009693;28;20049;-60
2022/03/13 08:15:47;;;;;;;17.40;12.63;;;14.00;78.20;;;;;;5009931;28;20060;-60
2022/03/13 08:18:51;;;;;;;17.52;11.85;;;16.30;76.20;;;;;;5010260;28;20049;-60
2022/03/13 08:21:55;;;;;;;17.58;11.20;;;17.70;73.10;;;;;;5009844;28;20053;-60
2022/03/13 08:25:00;;;;;;;14.90;11.35;;;20.20;69.10;;;;;;5010027;28;20057;-60
2022/03/13 08:28:06;;;;;;;13.07;10.63;;;22.00;66.00;;;;;;5009713;28;20049;-60
2022/03/13 08:31:11;;;;;;;17.50;10.70;;;22.20;63.30;;;;;;5009642;28;20052;-60
2022/03/13 08:34:15;;;;;;;13.40;9.82;;;20.90;63.40;;;;;;5010166;28;20041;-61
2022/03/13 08:37:19;;;;;;;17.15;11.95;;;22.40;61.90;;;;;;5012291;28;20643;-60
2022/03/13 08:40:29;;;;;;;14.13;11.30;;;19.40;61.20;;;;;;5013834;28;20053;-60
2022/03/13 08:43:32;;;;;;;14.60;11.00;;;19.30;63.00;;;;;;5013638;28;20044;-60
2022/03/13 08:46:38;;;;;;;16.90;10.70;;;18.20;63.80;;;;;;5013279;28;20053;-60
2022/03/13 08:49:42;;;;;;;18.20;11.95;;;18.20;64.10;;;;;;5014001;28;20052;-61
2022/03/13 08:52:46;;;;;;;12.25;9.48;;;20.20;63.00;;;;;;5023932;28;20041;-61
2022/03/13 08:55:50;;;;;;;15.05;10.68;;;23.10;59.90;;;;;;5013157;28;20236;-62
2022/03/13 08:58:55;;;;;;;15.27;9.77;;;24.20;57.60;;;;;;5013767;28;20497;-61
2022/03/13 09:01:59;;;;;;;11.13;8.50;;;26.00;55.10;;;;;;5013209;28;20061;-62
2022/03/13 09:05:03;;;;;;;8.70;7.53;;;25.90;53.60;;;;;;5013069;28;20053;-62
2022/03/13 09:08:07;;;;;;;12.02;9.15;;;26.40;53.30;;;;;;5013305;28;20040;-61
2022/03/13 09:11:13;;;;;;;9.10;7.90;;;22.30;55.60;;;;;;5012698;28;20484;-62
2022/03/13 09:14:18;;;;;;;10.43;8.38;;;23.40;54.00;;;;;;5013313;28;20045;-61
2022/03/13 09:17:23;;;;;;;11.90;8.15;;;23.40;55.30;;;;;;5013114;28;20053;-62
2022/03/13 09:20:27;;;;;;;9.98;8.30;;;25.10;53.20;;;;;;5013150;28;20052;-61
2022/03/13 09:23:31;;;;;;;11.25;8.63;;;26.70;51.80;;;;;;5012765;28;20052;-63
2022/03/13 09:26:39;;;;;;;11.60;7.78;;;25.40;52.60;;;;;;5012973;28;20052;-62
2022/03/13 09:29:43;;;;;;;11.13;7.90;;;27.60;51.50;;;;;;5012588;28;20041;-62
2022/03/13 09:32:47;;;;;;;12.15;8.38;;;25.90;49.50;;;;;;5012288;28;20037;-62
2022/03/13 09:35:51;;;;;;;9.25;8.23;;;24.40;52.10;;;;;;5012864;28;20052;-62
2022/03/13 09:38:56;;;;;;;10.98;7.97;;;23.20;52.40;;;;;;5012714;28;20037;-62
2022/03/13 09:42:00;;;;;;;12.55;8.77;;;24.00;53.10;;;;;;5012058;28;20041;-62
2022/03/13 09:45:06;;;;;;;11.50;8.00;;;22.30;52.40;;;;;;5012677;28;20045;-62
2022/03/13 09:48:10;;;;;;;11.20;8.13;;;25.50;52.20;;;;;;5011481;28;20045;-62
2022/03/13 09:51:14;;;;;;;12.57;7.70;;;27.50;49.80;;;;;;5012240;28;20049;-63
2022/03/13 09:54:19;;;;;;;9.65;7.55;;;28.80;49.30;;;;;;5012363;28;20069;-63
2022/03/13 09:57:23;;;;;;;8.18;7.25;;;29.10;48.70;;;;;;5012240;28;20065;-62
2022/03/13 10:00:27;;;;;;;10.05;7.85;;;28.00;48.80;;;;;;5012382;28;20045;-61
2022/03/13 10:03:31;;;;;;;10.23;6.50;;;25.60;49.50;;;;;;5012170;28;20045;-62
2022/03/13 10:07:01;;;;;;;11.00;7.25;;;23.30;50.30;;;;;;5012777;28;20061;-62
2022/03/13 10:10:13;;;;;;;9.23;6.68;;;26.80;50.00;;;;;;5012391;28;20037;-63
2022/03/13 10:13:43;;;;;;;10.63;7.78;;;29.70;48.20;;;;;;5012234;28;20504;-62
2022/03/13 10:16:47;;;;;;;9.85;7.03;;;26.70;48.70;;;;;;5012574;28;20061;-62
2022/03/13 10:19:51;;;;;;;8.00;6.57;;;28.40;47.90;;;;;;5011751;28;20053;-63
2022/03/13 10:23:01;;;;;;;11.27;7.72;;;30.10;46.60;;;;;;5011978;28;20048;-62
2022/03/13 10:26:05;;;;;;;9.50;7.22;;;27.40;48.10;;;;;;5012070;28;20456;-63
2022/03/13 10:29:29;;;;;;;15.02;6.63;;;25.80;47.10;;;;;;5011564;28;20041;-62
2022/03/13 10:32:33;;;;;;;10.05;6.90;;;26.40;48.90;;;;;;5011599;28;20048;-62
2022/03/13 10:35:39;;;;;;;12.20;7.70;;;24.20;48.20;;;;;;5011918;28;20516;-61
2022/03/13 10:38:45;;;;;;;7.93;7.03;;;24.10;50.30;;;;;;5009950;28;20078;-62
2022/03/13 10:41:56;;;;;;;9.15;6.03;;;27.00;48.20;;;;;;5011449;28;20080;-62
2022/03/13 10:45:02;;;;;;;9.98;6.28;;;29.90;47.00;;;;;;5011362;28;20053;-62
2022/03/13 10:48:28;;;;;;;8.45;6.45;;;31.10;45.10;;;;;;5011421;28;20048;-62
2022/03/13 10:51:37;;;;;;;7.78;6.30;;;30.90;44.80;;;;;;5010783;28;20056;-62
2022/03/13 10:54:46;;;;;;;10.27;6.72;;;30.70;44.40;;;;;;5021821;28;20049;-63
2022/03/13 10:57:55;;;;;;;8.35;6.13;;;32.20;44.40;;;;;;5011467;28;20117;-62
2022/03/13 11:01:10;;;;;;;6.85;5.95;;;30.30;44.80;;;;;;5010716;28;20496;-62
2022/03/13 11:04:22;;;;;;;7.75;6.57;;;29.80;44.50;;;;;;5011160;28;20045;-62
2022/03/13 11:07:27;;;;;;;9.45;6.22;;;27.90;45.10;;;;;;5011169;28;20057;-62
2022/03/13 11:10:31;;;;;;;8.32;6.45;;;29.50;45.70;;;;;;5010588;28;20044;-62
2022/03/13 11:13:41;;;;;;;8.10;5.78;;;30.10;44.50;;;;;;5011488;28;20045;-62
2022/03/13 11:16:46;;;;;;;8.10;6.30;;;31.40;44.50;;;;;;5010980;28;20056;-61
2022/03/13 11:19:53;;;;;;;9.05;6.13;;;30.90;43.30;;;;;;5010257;28;20064;-63
2022/03/13 11:22:57;;;;;;;8.77;6.00;;;30.50;43.50;;;;;;5011080;28;20053;-62
2022/03/13 11:26:01;;;;;;;7.65;6.40;;;31.10;42.40;;;;;;5010808;28;20068;-62
2022/03/13 11:29:08;;;;;;;10.85;6.72;;;30.40;42.90;;;;;;5009809;28;20033;-62
2022/03/13 11:32:33;;;;;;;8.93;6.97;;;23.40;47.40;;;;;;5010377;28;20045;-62
2022/03/13 11:35:36;;;;;;;8.10;6.05;;;24.60;46.40;;;;;;5010664;28;20044;-63
2022/03/13 11:39:05;;;;;;;13.38;7.40;;;27.70;45.90;;;;;;5010763;28;20401;-62
2022/03/13 11:42:23;;;;;;;11.02;7.25;;;23.70;45.80;;;;;;5010819;28;20049;-61
2022/03/13 11:45:35;;;;;;;12.60;6.50;;;23.80;48.70;;;;;;5010480;28;20069;-62
2022/03/13 11:48:39;;;;;;;8.23;5.80;;;26.90;46.20;;;;;;5010805;28;20049;-62
2022/03/13 11:51:45;;;;;;;11.23;6.63;;;29.60;44.50;;;;;;5009980;28;20049;-63
2022/03/13 11:54:52;;;;;;;7.78;5.88;;;31.40;43.90;;;;;;5010579;28;20053;-62
2022/03/13 11:58:01;;;;;;;8.35;6.40;;;32.50;42.50;;;;;;5010726;28;20052;-63
2022/03/13 12:01:06;;;;;;;14.43;7.13;;;33.00;41.80;;;;;;5009283;28;20053;-63
2022/03/13 12:04:10;;;;;;;7.72;5.97;;;31.50;42.00;;;;;;5010626;28;20045;-62
2022/03/13 12:07:28;;;;;;;8.23;5.75;;;32.00;42.50;;;;;;5010297;28;20077;-62
2022/03/13 12:10:39;;;;;;;8.30;6.47;;;32.50;42.20;;;;;;5009950;28;20056;-62
2022/03/13 12:13:48;;;;;;;9.13;6.78;;;27.60;42.30;;;;;;5016908;28;20049;-62
2022/03/13 12:17:08;;;;;;;11.35;6.45;;;21.90;49.30;;;;;;5015751;28;20393;-62
2022/03/13 12:20:26;;;;;;;11.25;7.78;;;25.30;46.10;;;;;;5015511;28;20049;-61
2022/03/13 12:23:34;;;;;;;10.30;6.30;;;24.40;44.70;;;;;;5016555;28;20393;-62
2022/03/13 12:26:39;;;;;;;9.30;6.90;;;27.50;44.30;;;;;;5016400;28;20275;-62
2022/03/13 12:29:49;;;;;;;7.50;6.22;;;29.10;43.10;;;;;;5016132;28;20044;-62
2022/03/13 12:33:04;;;;;;;11.40;7.33;;;29.30;42.70;;;;;;5016236;28;20481;-62
2022/03/13 12:36:08;;;;;;;9.30;7.07;;;24.00;44.20;;;;;;5016673;28;20045;-62
2022/03/13 12:39:16;;;;;;;10.35;6.80;;;22.60;46.80;;;;;;5016493;28;20049;-62
2022/03/13 12:42:23;;;;;;;11.05;6.88;;;22.00;48.10;;;;;;5015996;28;20045;-61
2022/03/13 12:45:30;;;;;;;11.60;6.45;;;24.50;46.80;;;;;;5016530;28;20052;-61
2022/03/13 12:48:37;;;;;;;11.05;7.43;;;27.50;45.20;;;;;;5016685;28;20045;-62
2022/03/13 12:51:43;;;;;;;8.80;6.00;;;27.80;43.10;;;;;;5015989;28;20049;-63
2022/03/13 12:54:46;;;;;;;8.32;6.38;;;28.90;43.10;;;;;;5016513;28;20523;-62
2022/03/13 12:57:53;;;;;;;9.43;6.47;;;22.70;45.40;;;;;;5016486;28;20041;-62
2022/03/13 13:01:00;;;;;;;8.25;5.60;;;23.30;46.40;;;;;;5015946;28;20053;-62
2022/03/13 13:04:13;;;;;;;7.72;6.20;;;21.70;48.40;;;;;;5016892;28;20381;-61
2022/03/13 13:07:21;;;;;;;9.90;6.55;;;23.50;45.80;;;;;;5016658;28;20037;-62
2022/03/13 13:10:28;;;;;;;8.85;6.10;;;21.70;45.40;;;;;;5016527;28;20512;-61
2022/03/13 13:13:32;;;;;;;9.48;6.47;;;22.70;45.70;;;;;;5016683;28;20049;-62
2022/03/13 13:16:37;;;;;;;11.43;6.20;;;18.70;49.50;;;;;;5016563;28;20053;-62
2022/03/13 13:19:46;;;;;;;10.40;6.80;;;20.40;49.90;;;;;;5016404;28;20060;-62
2022/03/13 13:23:10;;;;;;;9.82;5.97;;;21.90;48.50;;;;;;5013566;28;20049;-62
2022/03/13 13:26:17;;;;;;;9.40;5.60;;;25.00;45.10;;;;;;5012983;28;20044;-62
2022/03/13 13:29:41;;;;;;;11.32;6.30;;;26.50;44.50;;;;;;5012608;28;20420;-61
2022/03/13 13:32:49;;;;;;;10.05;6.80;;;23.80;45.20;;;;;;5012430;28;20123;-61
2022/03/13 13:35:55;;;;;;;9.95;6.60;;;24.50;45.00;;;;;;5012779;28;20223;-61
2022/03/13 13:39:06;;;;;;;9.82;5.80;;;22.70;45.10;;;;;;5012750;28;20052;-61
2022/03/13 13:42:09;;;;;;;7.78;5.38;;;24.10;44.80;;;;;;5012005;28;20499;-61
2022/03/13 13:45:29;;;;;;;10.57;5.93;;;22.30;45.10;;;;;;5012797;28;20045;-61
2022/03/13 13:48:52;;;;;;;9.57;7.18;;;19.70;46.30;;;;;;5011987;28;20048;-61
2022/03/13 13:52:10;;;;;;;12.30;6.80;;;19.50;49.30;;;;;;5011862;28;20499;-61
2022/03/13 13:55:22;;;;;;;9.77;5.43;;;18.70;48.80;;;;;;5012344;28;20240;-61
2022/03/13 13:58:33;;;;;;;7.13;5.55;;;21.40;47.60;;;;;;5012726;28;20405;-61
2022/03/13 14:01:37;;;;;;;9.23;5.97;;;22.70;45.40;;;;;;5011464;28;20052;-61
2022/03/13 14:04:42;;;;;;;8.10;5.75;;;23.30;45.30;;;;;;5012351;28;20045;-62
2022/03/13 14:07:46;;;;;;;8.45;5.50;;;22.20;44.40;;;;;;5012673;28;20053;-62
2022/03/13 14:10:50;;;;;;;8.00;5.30;;;22.70;44.90;;;;;;5011407;28;20037;-61
2022/03/13 14:13:55;;;;;;;8.43;5.57;;;19.80;47.10;;;;;;5012871;28;20037;-61
2022/03/13 14:16:59;;;;;;;8.50;5.63;;;21.50;47.00;;;;;;5012116;28;20401;-62
2022/03/13 14:20:03;;;;;;;8.60;5.47;;;19.70;45.90;;;;;;5011771;28;20049;-61
2022/03/13 14:23:08;;;;;;;6.43;4.70;;;22.40;45.70;;;;;;5011978;28;20044;-61
2022/03/13 14:26:14;;;;;;;8.63;5.60;;;24.10;45.70;;;;;;5011769;28;20041;-61
2022/03/13 14:29:21;;;;;;;11.27;6.22;;;23.70;43.90;;;;;;5012044;28;20045;-61
2022/03/13 14:32:25;;;;;;;9.15;6.28;;;23.60;45.00;;;;;;5010897;28;20041;-61
2022/03/13 14:35:29;;;;;;;9.23;6.30;;;21.70;46.20;;;;;;5011570;28;20044;-61
2022/03/13 14:38:33;;;;;;;9.90;5.90;;;21.20;47.50;;;;;;5011386;28;20041;-61
2022/03/13 14:41:39;;;;;;;9.05;6.03;;;22.60;45.50;;;;;;5011381;28;20056;-61
2022/03/13 14:44:43;;;;;;;12.23;6.07;;;20.60;46.30;;;;;;5011967;28;20057;-62
2022/03/13 14:47:47;;;;;;;9.48;6.15;;;21.00;46.80;;;;;;5011974;28;20045;-61
2022/03/13 14:50:51;;;;;;;9.85;5.78;;;18.40;49.00;;;;;;5011103;28;20049;-61
2022/03/13 14:53:56;;;;;;;9.77;6.10;;;18.80;49.20;;;;;;5011636;28;20044;-62
2022/03/13 14:57:00;;;;;;;12.38;5.10;;;19.00;49.50;;;;;;5011681;28;20057;-61
2022/03/13 15:00:07;;;;;;;10.63;6.13;;;19.10;48.10;;;;;;5011552;28;20076;-61
2022/03/13 15:03:13;;;;;;;6.35;5.00;;;18.30;46.90;;;;;;5011300;28;20068;-61
2022/03/13 15:06:17;;;;;;;8.80;5.72;;;18.10;48.30;;;;;;5011344;28;20053;-61
2022/03/13 15:09:24;;;;;;;8.52;5.65;;;17.40;50.30;;;;;;5011177;28;20401;-60
2022/03/13 15:12:28;;;;;;;9.27;5.50;;;18.50;48.50;;;;;;5010757;28;20053;-61
2022/03/13 15:15:32;;;;;;;10.15;5.25;;;18.80;48.40;;;;;;5010517;28;20251;-61
2022/03/13 15:18:37;;;;;;;8.30;5.47;;;17.60;49.90;;;;;;5011036;28;20048;-60
2022/03/13 15:21:41;;;;;;;10.15;5.18;;;17.00;51.30;;;;;;5010716;28;20069;-60
2022/03/13 15:24:45;;;;;;;8.63;5.22;;;17.50;50.60;;;;;;5011280;28;20429;-60
2022/03/13 15:27:51;;;;;;;7.97;5.72;;;17.00;49.60;;;;;;5011051;28;20049;-60
2022/03/13 15:30:55;;;;;;;8.75;5.35;;;16.10;51.30;;;;;;5010616;28;20656;-60
2022/03/13 15:34:01;;;;;;;7.75;5.70;;;16.00;51.40;;;;;;5011137;28;20519;-60
2022/03/13 15:37:05;;;;;;;9.52;6.00;;;15.10;53.50;;;;;;5011487;28;20077;-60
2022/03/13 15:40:10;;;;;;;9.10;5.57;;;15.40;51.60;;;;;;5011173;28;20110;-60
2022/03/13 15:43:14;;;;;;;7.22;5.05;;;15.80;52.00;;;;;;5010368;28;20056;-60
2022/03/13 15:46:18;;;;;;;7.28;5.60;;;15.60;52.90;;;;;;5010126;28;20052;-60
2022/03/13 15:49:23;;;;;;;8.48;5.47;;;15.10;53.70;;;;;;5010127;28;20045;-60
2022/03/13 15:52:28;;;;;;;9.60;5.88;;;15.40;53.80;;;;;;5010108;28;20044;-60
2022/03/13 15:55:33;;;;;;;19.98;11.90;;;15.60;53.90;;;;;;5010491;28;20053;-61
2022/03/13 15:58:37;;;;;;;10.88;6.88;;;15.80;53.40;;;;;;5010427;28;20053;-60